createdAt,value
2022-12-08T00:04:53.668Z,53.69
2022-12-08T00:09:55.129Z,53.24
2022-12-08T00:14:56.593Z,52.77
2022-12-08T00:19:58.050Z,53.55
2022-12-08T00:24:59.521Z,54.49
2022-12-08T00:30:00.986Z,54.00
2022-12-08T00:35:02.831Z,53.71
2022-12-08T00:40:05.207Z,52.99
2022-12-08T00:45:07.106Z,52.83
2022-12-08T00:50:08.744Z,51.76
2022-12-08T00:55:10.199Z,51.50
2022-12-08T01:00:11.964Z,50.51
2022-12-08T01:05:13.415Z,49.71
2022-12-08T01:10:15.433Z,50.56
2022-12-08T01:15:16.900Z,50.25
2022-12-08T01:20:18.465Z,50.41
2022-12-08T01:25:19.943Z,49.76
2022-12-08T01:30:21.500Z,49.16
2022-12-08T01:35:22.942Z,49.22
2022-12-08T01:40:24.398Z,50.95
2022-12-08T01:45:27.066Z,53.41
2022-12-08T01:50:28.647Z,53.17
2022-12-08T01:55:33.499Z,52.73
2022-12-08T02:00:34.947Z,52.80
2022-12-08T02:05:37.781Z,52.48
2022-12-08T02:10:40.573Z,53.67
2022-12-08T02:15:48.861Z,52.62
2022-12-08T02:21:33.448Z,52.43
2022-12-08T02:27:00.377Z,52.21
2022-12-08T02:32:28.280Z,51.57
2022-12-08T02:37:35.518Z,51.37
2022-12-08T02:43:14.616Z,50.78
2022-12-08T02:48:16.083Z,50.82
2022-12-08T02:53:17.540Z,50.73
2022-12-08T02:59:06.886Z,50.37
2022-12-08T03:04:35.586Z,51.12
2022-12-08T03:09:44.652Z,50.14
2022-12-08T03:14:48.435Z,50.89
2022-12-08T03:19:49.906Z,50.72
2022-12-08T03:24:51.426Z,50.46
2022-12-08T03:29:54.356Z,49.73
2022-12-08T03:34:56.544Z,49.59
2022-12-08T03:39:58.044Z,48.80
2022-12-08T03:44:59.496Z,50.24
2022-12-08T03:50:01.102Z,49.28
2022-12-08T03:55:02.755Z,49.71
2022-12-08T04:00:05.572Z,50.55
2022-12-08T04:05:07.375Z,50.86
2022-12-08T04:10:09.312Z,51.22
2022-12-08T04:15:10.943Z,51.31
2022-12-08T04:20:12.458Z,51.09
2022-12-08T04:25:14.142Z,51.08
2022-12-08T04:30:15.608Z,50.08
2022-12-08T04:35:17.131Z,51.82
2022-12-08T04:40:18.656Z,50.74
2022-12-08T04:45:20.105Z,50.67
2022-12-08T04:50:21.577Z,50.71
2022-12-08T04:55:23.032Z,50.31
2022-12-08T05:00:24.494Z,50.64
2022-12-08T05:05:25.982Z,49.64
2022-12-08T05:10:27.447Z,50.48
2022-12-08T05:15:28.907Z,50.65
2022-12-08T05:20:30.364Z,50.95
2022-12-08T05:25:31.828Z,51.91
2022-12-08T05:30:33.288Z,51.34
2022-12-08T05:35:34.745Z,51.40
2022-12-08T05:40:40.615Z,51.10
2022-12-08T05:45:42.141Z,52.00
2022-12-08T05:50:47.890Z,50.38
2022-12-08T05:55:49.349Z,49.19
2022-12-08T06:00:50.915Z,49.36
2022-12-08T06:05:52.407Z,48.61
2022-12-08T06:10:53.874Z,48.33
2022-12-08T06:15:55.315Z,48.85
2022-12-08T06:21:06.982Z,49.53
2022-12-08T06:26:10.429Z,50.18
2022-12-08T06:31:13.972Z,50.56
2022-12-08T06:36:19.768Z,50.73
2022-12-08T06:41:21.233Z,50.31
2022-12-08T06:46:22.921Z,50.57
2022-12-08T06:51:24.451Z,50.22
2022-12-08T06:56:27.963Z,48.40
2022-12-08T07:01:29.494Z,50.67
2022-12-08T07:06:30.978Z,53.21
2022-12-08T07:11:32.427Z,54.96
2022-12-08T07:16:33.930Z,55.31
2022-12-08T07:21:35.415Z,54.89
2022-12-08T07:26:36.929Z,54.29
2022-12-08T07:31:38.416Z,53.98
2022-12-08T07:36:39.894Z,54.60
2022-12-08T07:41:41.359Z,54.30
2022-12-08T07:46:42.877Z,54.71
2022-12-08T07:51:44.386Z,53.71
2022-12-08T07:56:45.839Z,54.31
2022-12-08T08:02:05.085Z,54.45
2022-12-08T08:07:09.762Z,55.29
2022-12-08T08:12:30.338Z,56.66
2022-12-08T08:17:32.737Z,58.11
2022-12-08T08:22:34.340Z,57.87
2022-12-08T08:27:35.791Z,57.22
2022-12-08T08:32:37.235Z,55.95
2022-12-08T08:37:38.687Z,55.30
2022-12-08T08:42:40.157Z,54.38
2022-12-08T08:47:41.636Z,55.06
2022-12-08T08:52:43.127Z,56.04
2022-12-08T08:57:44.599Z,55.18
2022-12-08T09:02:46.057Z,53.87
2022-12-08T09:07:47.661Z,52.32
2022-12-08T09:12:49.479Z,51.27
2022-12-08T09:17:50.936Z,50.38
2022-12-08T09:22:52.383Z,51.22
2022-12-08T09:27:53.838Z,50.57
2022-12-08T09:32:55.391Z,52.40
2022-12-08T09:37:56.846Z,54.03
2022-12-08T09:43:22.734Z,53.38
2022-12-08T09:48:32.808Z,52.91
2022-12-08T09:53:37.237Z,51.00
2022-12-08T09:58:54.945Z,50.28
2022-12-08T10:03:56.435Z,50.99
2022-12-08T10:09:22.710Z,52.01
2022-12-08T10:14:26.971Z,52.08
2022-12-08T10:19:28.466Z,51.53
2022-12-08T10:24:34.316Z,50.22
2022-12-08T10:29:35.777Z,50.32
2022-12-08T10:34:37.233Z,51.24
2022-12-08T10:39:45.607Z,50.46
2022-12-08T10:45:08.932Z,50.28
2022-12-08T10:50:27.816Z,50.32
2022-12-08T10:55:29.439Z,50.45
2022-12-08T11:00:31.067Z,50.39
2022-12-08T11:05:34.059Z,50.64
2022-12-08T11:10:43.466Z,49.63
2022-12-08T11:15:44.933Z,49.69
2022-12-08T11:20:46.386Z,49.71
2022-12-08T11:25:48.704Z,50.21
2022-12-08T11:30:54.740Z,50.00
2022-12-08T11:36:04.838Z,50.13
2022-12-08T11:41:19.192Z,49.97
2022-12-08T11:46:53.179Z,50.79
2022-12-08T11:52:12.060Z,48.97
2022-12-08T11:57:16.480Z,51.21
2022-12-08T12:02:25.339Z,50.83
2022-12-08T12:08:05.134Z,48.17
2022-12-08T12:13:27.762Z,50.17
2022-12-08T12:18:31.308Z,49.72
2022-12-08T12:23:48.763Z,50.13
2022-12-08T12:28:54.651Z,50.29
2022-12-08T12:34:04.813Z,49.08
2022-12-08T12:39:08.508Z,50.00
2022-12-08T12:44:12.618Z,49.45
2022-12-08T12:49:38.643Z,49.11
2022-12-08T12:54:42.626Z,51.28
2022-12-08T12:59:55.484Z,51.27
2022-12-08T13:05:08.884Z,49.53
2022-12-08T13:10:16.294Z,49.51
2022-12-08T13:15:22.111Z,49.45
2022-12-08T13:20:24.312Z,48.40
2022-12-08T13:25:48.077Z,49.48
2022-12-08T13:30:50.305Z,48.62
2022-12-08T13:35:56.620Z,49.42
2022-12-08T13:40:58.182Z,49.01
2022-12-08T13:46:52.836Z,49.12
2022-12-08T14:02:28.073Z,49.30
2022-12-08T14:07:29.594Z,49.40
2022-12-08T14:12:31.042Z,47.65
2022-12-08T14:17:32.725Z,48.28
2022-12-08T14:22:37.753Z,47.48
2022-12-08T14:27:39.299Z,47.82
2022-12-08T14:32:46.660Z,47.62
2022-12-08T14:37:48.782Z,48.96
2022-12-08T14:43:09.213Z,49.36
2022-12-08T14:48:33.487Z,50.43
2022-12-08T14:53:42.237Z,47.42
2022-12-08T14:58:43.774Z,47.51
2022-12-08T15:03:50.707Z,47.22
2022-12-08T15:08:58.746Z,47.32
2022-12-08T15:14:00.357Z,46.88
2022-12-08T15:19:31.548Z,47.34
2022-12-08T15:24:35.495Z,46.59
2022-12-08T15:29:36.999Z,47.01
2022-12-08T15:34:38.480Z,47.15
2022-12-08T15:39:39.934Z,47.18
2022-12-08T15:44:41.564Z,48.22
2022-12-08T15:49:43.035Z,46.57
2022-12-08T15:54:44.497Z,47.86
2022-12-08T15:59:45.991Z,47.16
2022-12-08T16:05:33.256Z,47.79
2022-12-08T16:10:17.943Z,48.84
2022-12-08T16:26:24.000Z,47.52
2022-12-08T16:31:23.956Z,47.13
2022-12-08T16:36:25.540Z,47.19
2022-12-08T16:41:45.346Z,46.42
2022-12-08T16:46:46.816Z,46.55
2022-12-08T16:51:48.307Z,46.71
2022-12-08T16:56:49.829Z,48.87
2022-12-08T17:01:51.282Z,50.57
2022-12-08T17:06:52.967Z,51.46
2022-12-08T17:11:58.819Z,51.63
2022-12-08T17:17:03.669Z,52.82
2022-12-08T17:22:05.502Z,50.13
2022-12-08T17:27:06.986Z,53.23
2022-12-08T17:32:08.526Z,49.90
2022-12-08T17:37:10.085Z,49.59
2022-12-08T17:42:11.565Z,51.67
2022-12-08T17:47:13.027Z,49.79
2022-12-08T17:52:14.492Z,48.43
2022-12-08T17:57:15.951Z,50.59
2022-12-08T18:02:18.080Z,49.62
2022-12-08T18:07:19.594Z,49.31
2022-12-08T18:12:23.873Z,49.04
2022-12-08T18:17:25.580Z,50.02
2022-12-08T18:22:27.121Z,50.28
2022-12-08T18:27:28.575Z,50.81
2022-12-08T18:32:30.039Z,49.63
2022-12-08T18:37:31.499Z,49.54
2022-12-08T18:42:32.975Z,50.19
2022-12-08T18:47:36.221Z,49.97
2022-12-08T18:52:37.688Z,49.28
2022-12-08T18:57:40.001Z,49.97
2022-12-08T19:02:41.658Z,48.45
2022-12-08T19:07:43.579Z,50.43
2022-12-08T19:12:45.069Z,50.58
2022-12-08T19:17:46.529Z,50.32
2022-12-08T19:22:47.992Z,49.89
2022-12-08T19:27:49.453Z,49.83
2022-12-08T19:32:50.912Z,49.71
2022-12-08T19:37:52.457Z,49.66
2022-12-08T19:43:12.636Z,48.75
2022-12-08T19:48:14.126Z,49.75
2022-12-08T19:53:15.730Z,49.98
2022-12-08T19:58:17.446Z,49.53
2022-12-08T20:03:19.705Z,49.87
2022-12-08T20:08:21.321Z,49.57
2022-12-08T20:13:40.829Z,49.83
2022-12-08T20:18:42.473Z,49.56
2022-12-08T20:23:45.541Z,49.30
2022-12-08T20:28:47.115Z,50.38
2022-12-08T20:33:48.684Z,49.72
2022-12-08T20:38:50.763Z,49.50
2022-12-08T20:43:52.373Z,49.36
2022-12-08T20:48:53.930Z,49.58
2022-12-08T20:53:55.468Z,48.55
2022-12-08T20:58:57.077Z,48.76
2022-12-08T21:03:58.729Z,48.62
2022-12-08T21:09:00.494Z,47.92
2022-12-08T21:14:02.104Z,47.80
2022-12-08T21:19:03.697Z,48.14
2022-12-08T21:24:05.730Z,47.68
2022-12-08T21:29:07.235Z,48.02
2022-12-08T21:34:09.571Z,47.79
2022-12-08T21:39:12.831Z,47.07
2022-12-08T21:44:15.311Z,47.35
2022-12-08T21:49:17.015Z,46.56
2022-12-08T21:54:19.372Z,47.12
2022-12-08T21:59:21.282Z,46.66
2022-12-08T22:04:24.559Z,46.79
2022-12-08T22:09:28.236Z,46.67
2022-12-08T22:14:29.810Z,46.38
2022-12-08T22:19:31.601Z,46.95
2022-12-08T22:24:33.269Z,48.88
2022-12-08T22:29:34.883Z,49.79
2022-12-08T22:34:36.680Z,50.76
2022-12-08T22:39:38.324Z,50.11
2022-12-08T22:44:39.904Z,50.24
2022-12-08T22:49:41.471Z,50.24
2022-12-08T22:54:43.177Z,50.45
2022-12-08T22:59:44.671Z,50.43
2022-12-08T23:04:46.351Z,49.59
2022-12-08T23:09:48.182Z,48.65
2022-12-08T23:14:49.639Z,46.13
2022-12-08T23:19:51.101Z,46.20
2022-12-08T23:24:52.679Z,48.79
2022-12-08T23:29:54.222Z,46.75
2022-12-08T23:34:55.669Z,46.38
2022-12-08T23:39:57.142Z,46.64
2022-12-08T23:44:58.837Z,49.82
2022-12-08T23:50:00.352Z,49.74
2022-12-08T23:55:01.874Z,48.84
